createdAt,value
2023-10-16T00:02:17.719Z,5.40
2023-10-16T00:04:46.719Z,5.20
2023-10-16T00:07:09.115Z,5.37
2023-10-16T00:09:35.294Z,5.00
2023-10-16T00:11:59.517Z,5.63
2023-10-16T00:14:25.358Z,5.00
2023-10-16T00:16:48.001Z,5.93
2023-10-16T00:19:10.571Z,5.97
2023-10-16T00:21:32.995Z,6.20
2023-10-16T00:23:56.547Z,6.20
2023-10-16T00:26:22.516Z,6.07
2023-10-16T00:28:47.822Z,6.10
2023-10-16T00:31:10.283Z,5.47
2023-10-16T00:33:34.529Z,7.20
2023-10-16T00:35:56.864Z,5.17
2023-10-16T00:38:26.145Z,5.80
2023-10-16T00:41:07.494Z,6.30
2023-10-16T00:43:33.442Z,7.07
2023-10-16T00:46:01.998Z,5.80
2023-10-16T00:48:24.409Z,8.63
2023-10-16T00:50:49.610Z,6.20
2023-10-16T00:53:12.172Z,6.83
2023-10-16T00:55:34.438Z,6.80
2023-10-16T00:57:57.023Z,6.07
2023-10-16T01:00:23.243Z,6.57
2023-10-16T01:02:45.615Z,6.37
2023-10-16T01:05:08.873Z,6.60
2023-10-16T01:07:31.158Z,6.97
2023-10-16T01:09:53.474Z,5.70
2023-10-16T01:12:15.986Z,5.50
2023-10-16T01:14:39.739Z,5.10
2023-10-16T01:17:02.492Z,5.67
2023-10-16T01:19:24.725Z,5.77
2023-10-16T01:21:50.261Z,6.33
2023-10-16T01:24:15.359Z,5.50
2023-10-16T01:26:37.757Z,5.37
2023-10-16T01:29:02.183Z,5.87
2023-10-16T01:31:24.644Z,5.07
2023-10-16T01:33:47.883Z,6.67
2023-10-16T01:36:11.556Z,9.03
2023-10-16T01:38:34.049Z,6.03
2023-10-16T01:41:14.856Z,5.87
2023-10-16T01:43:40.533Z,6.83
2023-10-16T01:46:10.027Z,5.90
2023-10-16T01:48:32.466Z,5.63
2023-10-16T01:50:54.832Z,6.17
2023-10-16T01:53:21.939Z,8.53
2023-10-16T01:55:52.253Z,5.73
2023-10-16T01:58:17.151Z,6.80
2023-10-16T02:00:42.674Z,6.57
2023-10-16T02:03:09.820Z,6.60
2023-10-16T02:05:34.073Z,8.00
2023-10-16T02:07:57.731Z,5.90
2023-10-16T02:10:21.286Z,7.17
2023-10-16T02:12:43.671Z,7.20
2023-10-16T02:15:07.167Z,9.30
2023-10-16T02:17:29.483Z,6.13
2023-10-16T02:19:52.681Z,6.43
2023-10-16T02:22:18.076Z,6.53
2023-10-16T02:24:41.908Z,7.10
2023-10-16T02:27:04.351Z,5.83
2023-10-16T02:29:29.636Z,7.33
2023-10-16T02:31:52.106Z,6.13
2023-10-16T02:34:15.436Z,6.60
2023-10-16T02:36:39.029Z,7.50
2023-10-16T02:39:01.329Z,6.20
2023-10-16T02:41:23.884Z,7.53
2023-10-16T02:43:49.312Z,6.47
2023-10-16T02:46:11.632Z,8.47
2023-10-16T02:48:34.052Z,8.37
2023-10-16T02:50:58.148Z,6.13
2023-10-16T02:53:23.059Z,7.20
2023-10-16T02:55:50.708Z,5.53
2023-10-16T02:58:13.024Z,7.90
2023-10-16T03:00:36.979Z,6.17
2023-10-16T03:02:59.307Z,5.57
2023-10-16T03:05:25.911Z,6.30
2023-10-16T03:07:48.179Z,6.20
2023-10-16T03:10:11.723Z,7.67
2023-10-16T03:12:34.025Z,11.43
2023-10-16T03:14:58.794Z,6.90
2023-10-16T03:17:27.089Z,11.20
2023-10-16T03:19:49.880Z,5.70
2023-10-16T03:22:13.463Z,5.87
2023-10-16T03:24:37.622Z,8.63
2023-10-16T03:26:59.847Z,7.07
2023-10-16T03:29:22.127Z,8.60
2023-10-16T03:31:45.035Z,7.30
2023-10-16T03:34:12.288Z,8.03
2023-10-16T03:36:36.102Z,7.93
2023-10-16T03:39:04.442Z,7.57
2023-10-16T03:41:33.145Z,6.60
2023-10-16T03:44:00.048Z,6.43
2023-10-16T03:46:22.670Z,7.53
2023-10-16T03:48:45.929Z,7.70
2023-10-16T03:51:08.708Z,7.87
2023-10-16T03:53:33.610Z,9.70
2023-10-16T03:55:56.025Z,7.60
2023-10-16T03:58:18.418Z,8.00
2023-10-16T04:00:59.992Z,6.47
2023-10-16T04:03:23.344Z,8.23
2023-10-16T04:05:49.038Z,9.07
2023-10-16T04:08:11.334Z,6.67
2023-10-16T04:10:35.531Z,7.70
2023-10-16T04:12:58.697Z,6.93
2023-10-16T04:15:40.090Z,7.50
2023-10-16T04:18:06.052Z,6.70
2023-10-16T04:20:47.923Z,7.33
2023-10-16T04:23:30.269Z,6.27
2023-10-16T04:26:12.686Z,7.13
2023-10-16T04:28:41.312Z,8.10
2023-10-16T04:31:23.879Z,6.87
2023-10-16T04:33:49.773Z,6.90
2023-10-16T04:36:32.915Z,8.20
2023-10-16T04:38:56.525Z,7.13
2023-10-16T04:41:47.928Z,7.03
2023-10-16T04:44:33.272Z,8.17
2023-10-16T04:47:01.866Z,7.83
2023-10-16T04:49:29.775Z,9.37
2023-10-16T04:52:03.205Z,7.30
2023-10-16T04:54:29.543Z,8.67
2023-10-16T04:57:07.211Z,7.27
2023-10-16T04:59:38.656Z,7.77
2023-10-16T05:02:18.075Z,8.60
2023-10-16T05:04:58.945Z,9.17
2023-10-16T05:07:38.849Z,10.83
2023-10-16T05:10:21.483Z,6.83
2023-10-16T05:13:04.090Z,8.00
2023-10-16T05:15:50.665Z,7.37
2023-10-16T05:18:13.031Z,6.53
2023-10-16T05:21:07.214Z,6.70
2023-10-16T05:23:48.418Z,6.40
2023-10-16T05:26:29.143Z,9.00
2023-10-16T05:29:10.440Z,6.40
2023-10-16T05:31:52.978Z,6.47
2023-10-16T05:34:35.577Z,7.03
2023-10-16T05:37:16.640Z,6.73
2023-10-16T05:40:11.131Z,8.63
2023-10-16T05:42:52.079Z,8.23
2023-10-16T05:45:32.991Z,7.73
2023-10-16T05:48:14.018Z,7.10
2023-10-16T05:50:55.009Z,7.77
2023-10-16T05:53:36.201Z,7.50
2023-10-16T05:56:16.962Z,7.60
2023-10-16T05:58:57.841Z,8.37
2023-10-16T06:01:38.651Z,7.87
2023-10-16T06:04:20.141Z,7.60
2023-10-16T06:07:01.351Z,9.80
2023-10-16T06:09:42.931Z,7.43
2023-10-16T06:12:23.995Z,7.77
2023-10-16T06:14:46.430Z,9.03
2023-10-16T06:17:16.987Z,8.40
2023-10-16T06:19:43.827Z,9.67
2023-10-16T06:22:09.139Z,11.93
2023-10-16T06:24:34.722Z,11.73
2023-10-16T06:27:00.868Z,11.07
2023-10-16T06:29:41.456Z,10.30
2023-10-16T06:32:19.793Z,8.30
2023-10-16T06:34:43.603Z,8.40
2023-10-16T06:37:11.173Z,10.20
2023-10-16T06:39:36.811Z,8.50
2023-10-16T06:42:03.552Z,7.70
2023-10-16T06:44:35.408Z,10.03
2023-10-16T06:47:01.339Z,9.10
2023-10-16T06:49:27.737Z,9.13
2023-10-16T06:51:50.020Z,10.30
2023-10-16T06:54:12.503Z,14.33
2023-10-16T06:56:36.317Z,13.37
2023-10-16T06:58:59.086Z,8.40
2023-10-16T07:01:21.381Z,8.13
2023-10-16T07:03:43.727Z,7.97
2023-10-16T07:06:06.705Z,11.37
2023-10-16T07:08:29.596Z,9.13
2023-10-16T07:10:54.041Z,9.73
2023-10-16T07:13:29.349Z,10.27
2023-10-16T07:15:54.620Z,10.07
2023-10-16T07:18:16.881Z,9.13
2023-10-16T07:20:54.805Z,7.40
2023-10-16T07:23:18.720Z,9.67
2023-10-16T07:25:55.648Z,7.87
2023-10-16T07:28:19.579Z,9.83
2023-10-16T07:30:44.358Z,9.20
2023-10-16T07:33:06.821Z,8.73
2023-10-16T07:35:29.109Z,8.87
2023-10-16T07:37:57.462Z,10.43
2023-10-16T07:40:21.334Z,8.93
2023-10-16T07:42:47.625Z,11.47
2023-10-16T07:45:10.217Z,12.03
2023-10-16T07:47:32.436Z,10.63
2023-10-16T07:49:54.804Z,13.13
2023-10-16T07:52:17.106Z,12.03
2023-10-16T07:54:43.046Z,9.07
2023-10-16T07:57:05.385Z,11.60
2023-10-16T07:59:29.311Z,12.67
2023-10-16T08:01:59.042Z,10.17
2023-10-16T08:04:24.861Z,10.43
2023-10-16T08:06:48.840Z,8.83
2023-10-16T08:09:23.389Z,8.33
2023-10-16T08:11:45.822Z,8.17
2023-10-16T08:14:09.846Z,9.97
2023-10-16T08:16:32.261Z,10.87
2023-10-16T08:18:58.475Z,11.53
2023-10-16T08:21:27.401Z,9.20
2023-10-16T08:23:49.703Z,8.17
2023-10-16T08:26:29.537Z,7.97
2023-10-16T08:28:52.059Z,7.43
2023-10-16T08:31:26.672Z,7.80
2023-10-16T08:33:49.479Z,5.27
2023-10-16T08:36:12.092Z,4.50
2023-10-16T08:38:37.436Z,6.43
2023-10-16T08:41:07.165Z,4.17
2023-10-16T08:43:54.503Z,5.43
2023-10-16T08:46:20.538Z,4.27
2023-10-16T08:48:43.785Z,4.37
2023-10-16T08:51:10.012Z,4.23
2023-10-16T08:53:33.161Z,5.77
2023-10-16T08:55:57.413Z,4.77
2023-10-16T08:58:19.727Z,3.60
2023-10-16T09:00:49.993Z,3.80
2023-10-16T09:03:12.565Z,4.67
2023-10-16T09:05:34.954Z,5.03
2023-10-16T09:07:58.843Z,4.60
2023-10-16T09:10:22.861Z,5.00
2023-10-16T09:12:55.645Z,4.63
2023-10-16T09:15:25.581Z,5.90
2023-10-16T09:17:48.677Z,2.87
2023-10-16T09:20:14.614Z,3.53
2023-10-16T09:22:43.637Z,3.37
2023-10-16T09:25:07.638Z,3.30
2023-10-16T09:27:32.775Z,3.77
2023-10-16T09:29:55.188Z,3.77
2023-10-16T09:32:22.034Z,5.40
2023-10-16T09:34:44.681Z,6.00
2023-10-16T09:37:36.012Z,6.03
2023-10-16T09:40:02.097Z,6.37
2023-10-16T09:42:27.133Z,7.20
2023-10-16T09:44:57.898Z,6.63
2023-10-16T09:47:26.659Z,5.53
2023-10-16T09:49:49.751Z,3.87
2023-10-16T09:52:15.106Z,3.87
2023-10-16T09:54:37.891Z,3.50
2023-10-16T09:57:01.408Z,3.43
2023-10-16T09:59:40.179Z,3.20
2023-10-16T10:02:10.325Z,5.00
2023-10-16T10:04:33.604Z,5.67
2023-10-16T10:06:58.757Z,4.23
2023-10-16T10:09:23.408Z,2.60
2023-10-16T10:12:09.185Z,3.33
2023-10-16T10:14:40.145Z,3.27
2023-10-16T10:17:05.299Z,4.90
2023-10-16T10:19:36.919Z,3.83
2023-10-16T10:22:07.318Z,5.30
2023-10-16T10:24:29.929Z,5.60
2023-10-16T10:26:52.749Z,2.93
2023-10-16T10:29:17.934Z,5.57
2023-10-16T10:31:43.855Z,4.53
2023-10-16T10:34:24.385Z,5.27
2023-10-16T10:36:47.103Z,6.03
2023-10-16T10:39:26.647Z,1.93
2023-10-16T10:41:51.175Z,3.10
2023-10-16T10:44:17.413Z,3.53
2023-10-16T10:46:43.508Z,2.70
2023-10-16T10:49:09.857Z,2.70
2023-10-16T10:51:36.574Z,2.80
2023-10-16T10:54:07.807Z,3.10
2023-10-16T10:56:40.279Z,3.63
2023-10-16T10:59:10.078Z,2.90
2023-10-16T11:01:34.788Z,4.27
2023-10-16T11:03:57.261Z,2.93
2023-10-16T11:06:20.757Z,3.53
2023-10-16T11:08:43.632Z,2.60
2023-10-16T11:11:06.945Z,6.60
2023-10-16T11:13:29.917Z,2.53
2023-10-16T11:15:55.543Z,2.10
2023-10-16T11:18:20.103Z,2.13
2023-10-16T11:20:46.923Z,2.67
2023-10-16T11:23:15.266Z,5.53
2023-10-16T11:25:37.604Z,4.50
2023-10-16T11:28:08.804Z,3.87
2023-10-16T11:30:34.837Z,2.37
2023-10-16T11:32:57.107Z,2.83
2023-10-16T11:35:20.228Z,1.60
2023-10-16T11:37:56.944Z,3.03
2023-10-16T11:40:19.570Z,2.40
2023-10-16T11:42:42.765Z,3.63
2023-10-16T11:45:10.906Z,3.22
2023-10-16T11:47:41.204Z,3.55
2023-10-16T11:50:09.663Z,1.42
2023-10-16T11:52:31.916Z,3.55
2023-10-16T11:54:57.909Z,3.05
2023-10-16T11:57:20.638Z,3.30
2023-10-16T11:59:42.970Z,3.17
2023-10-16T12:02:19.968Z,6.20
2023-10-16T12:04:42.730Z,1.50
2023-10-16T12:07:05.805Z,2.60
2023-10-16T12:09:37.592Z,2.97
2023-10-16T12:11:59.923Z,3.25
2023-10-16T12:14:23.428Z,3.17
2023-10-16T12:16:46.815Z,1.95
2023-10-16T12:19:10.705Z,1.80
2023-10-16T12:21:33.109Z,2.20
2023-10-16T12:23:55.543Z,2.10
2023-10-16T12:26:17.821Z,2.08
2023-10-16T12:28:41.103Z,2.58
2023-10-16T12:31:04.343Z,1.85
2023-10-16T12:33:26.711Z,1.33
2023-10-16T12:35:49.092Z,2.75
2023-10-16T12:38:11.729Z,2.28
2023-10-16T12:40:40.260Z,1.42
2023-10-16T12:43:02.986Z,2.35
2023-10-16T12:45:25.825Z,3.35
2023-10-16T12:47:50.347Z,1.27
2023-10-16T12:50:13.611Z,2.55
2023-10-16T12:52:43.338Z,3.90
2023-10-16T12:55:10.390Z,2.20
2023-10-16T12:57:32.864Z,0.80
2023-10-16T12:59:57.502Z,2.00
2023-10-16T13:02:27.139Z,2.03
2023-10-16T13:04:52.674Z,3.38
2023-10-16T13:07:27.068Z,4.55
2023-10-16T13:09:57.596Z,5.45
2023-10-16T13:12:19.916Z,1.73
2023-10-16T13:14:42.201Z,2.45
2023-10-16T13:17:09.429Z,1.92
2023-10-16T13:19:32.982Z,1.52
2023-10-16T13:21:55.467Z,3.67
2023-10-16T13:24:21.093Z,1.92
2023-10-16T13:26:43.816Z,1.55
2023-10-16T13:29:09.724Z,2.42
2023-10-16T13:31:32.474Z,1.27
2023-10-16T13:33:54.849Z,2.13
2023-10-16T13:36:18.623Z,1.45
2023-10-16T13:38:45.754Z,1.73
2023-10-16T13:41:18.388Z,2.88
2023-10-16T13:43:40.703Z,3.60
2023-10-16T13:46:02.961Z,2.85
2023-10-16T13:48:25.276Z,2.22
2023-10-16T13:50:48.866Z,1.55
2023-10-16T13:53:12.378Z,1.33
2023-10-16T13:55:35.012Z,2.67
2023-10-16T13:57:57.264Z,3.15
2023-10-16T14:00:30.026Z,0.98
2023-10-16T14:02:54.036Z,3.90
2023-10-16T14:05:21.339Z,3.35
2023-10-16T14:07:45.017Z,1.73
2023-10-16T14:10:07.501Z,1.92
2023-10-16T14:12:35.988Z,2.07
2023-10-16T14:14:58.284Z,2.13
2023-10-16T14:17:21.959Z,2.63
2023-10-16T14:19:48.926Z,1.80
2023-10-16T14:22:11.326Z,2.22
2023-10-16T14:24:35.533Z,1.97
2023-10-16T14:26:59.942Z,1.40
2023-10-16T14:29:25.971Z,1.60
2023-10-16T14:31:56.630Z,2.87
2023-10-16T14:34:25.407Z,1.50
2023-10-16T14:36:47.896Z,4.43
2023-10-16T14:39:10.312Z,3.80
2023-10-16T14:41:33.171Z,2.67
2023-10-16T14:43:56.352Z,2.70
2023-10-16T14:46:22.235Z,1.43
2023-10-16T14:48:45.166Z,1.80
2023-10-16T14:51:07.502Z,3.17
2023-10-16T14:53:30.105Z,2.37
2023-10-16T14:55:52.755Z,2.77
2023-10-16T14:58:29.433Z,1.83
2023-10-16T15:00:57.966Z,4.77
2023-10-16T15:03:21.551Z,2.60
2023-10-16T15:05:45.072Z,2.30
2023-10-16T15:08:08.304Z,2.50
2023-10-16T15:10:45.552Z,2.73
2023-10-16T15:13:13.743Z,1.00
2023-10-16T15:15:38.404Z,2.33
2023-10-16T15:18:00.782Z,1.40
2023-10-16T15:20:23.671Z,2.53
2023-10-16T15:22:46.232Z,2.37
2023-10-16T15:25:08.773Z,1.77
2023-10-16T15:27:31.799Z,1.43
2023-10-16T15:29:54.155Z,1.40
2023-10-16T15:32:16.456Z,1.43
2023-10-16T15:34:38.674Z,1.47
2023-10-16T15:37:02.004Z,3.60
2023-10-16T15:39:24.691Z,2.17
2023-10-16T15:41:47.126Z,2.73
2023-10-16T15:44:09.722Z,2.37
2023-10-16T15:46:33.231Z,1.20
2023-10-16T15:48:56.416Z,1.37
2023-10-16T15:51:19.017Z,1.93
2023-10-16T15:53:46.900Z,1.83
2023-10-16T15:56:09.123Z,2.03
2023-10-16T15:58:31.340Z,3.97
2023-10-16T16:00:55.649Z,2.60
2023-10-16T16:03:18.718Z,2.37
2023-10-16T16:05:41.363Z,1.53
2023-10-16T16:08:04.854Z,3.47
2023-10-16T16:10:33.036Z,3.03
2023-10-16T16:12:55.961Z,4.23
2023-10-16T16:15:18.273Z,3.80
2023-10-16T16:17:40.537Z,7.73
2023-10-16T16:20:02.797Z,5.60
2023-10-16T16:22:25.308Z,5.17
2023-10-16T16:24:48.019Z,4.30
2023-10-16T16:27:10.920Z,2.53
2023-10-16T16:29:33.209Z,1.67
2023-10-16T16:31:56.082Z,2.20
2023-10-16T16:34:18.655Z,3.77
2023-10-16T16:36:41.622Z,3.47
2023-10-16T16:39:06.230Z,4.13
2023-10-16T16:41:28.689Z,12.00
2023-10-16T16:43:52.439Z,36.27
2023-10-16T16:46:14.700Z,9.07
2023-10-16T16:48:37.226Z,5.90
2023-10-16T16:51:01.039Z,6.60
2023-10-16T16:53:23.392Z,3.67
2023-10-16T16:55:45.640Z,2.40
2023-10-16T16:58:12.129Z,3.30
2023-10-16T17:00:34.584Z,2.07
2023-10-16T17:02:58.161Z,4.30
2023-10-16T17:05:22.158Z,2.20
2023-10-16T17:07:45.149Z,3.43
2023-10-16T17:10:08.179Z,2.53
2023-10-16T17:12:30.736Z,2.17
2023-10-16T17:14:53.082Z,3.83
2023-10-16T17:17:16.258Z,2.23
2023-10-16T17:19:39.400Z,2.87
2023-10-16T17:22:01.665Z,3.07
2023-10-16T17:24:26.753Z,2.97
2023-10-16T17:26:49.256Z,1.90
2023-10-16T17:29:11.815Z,3.37
2023-10-16T17:31:34.193Z,2.23
2023-10-16T17:33:56.499Z,2.40
2023-10-16T17:36:19.044Z,2.40
2023-10-16T17:38:42.448Z,4.63
2023-10-16T17:41:05.056Z,2.43
2023-10-16T17:43:28.132Z,5.07
2023-10-16T17:45:50.417Z,13.37
2023-10-16T17:48:12.833Z,25.27
2023-10-16T17:50:35.121Z,4.73
2023-10-16T17:52:57.347Z,2.73
2023-10-16T17:55:20.120Z,3.30
2023-10-16T17:57:42.523Z,3.67
2023-10-16T18:00:13.893Z,3.03
2023-10-16T18:02:38.047Z,4.17
2023-10-16T18:05:01.817Z,3.80
2023-10-16T18:07:24.601Z,6.67
2023-10-16T18:09:46.913Z,3.03
2023-10-16T18:12:09.946Z,3.17
2023-10-16T18:14:41.658Z,4.10
2023-10-16T18:17:04.091Z,3.43
2023-10-16T18:19:26.493Z,4.63
2023-10-16T18:21:48.793Z,2.67
2023-10-16T18:24:11.159Z,3.83
2023-10-16T18:26:33.980Z,4.50
2023-10-16T18:28:57.342Z,3.57
2023-10-16T18:31:19.766Z,5.60
2023-10-16T18:33:48.198Z,4.50
2023-10-16T18:36:11.244Z,5.47
2023-10-16T18:38:33.519Z,9.27
2023-10-16T18:40:55.810Z,26.10
2023-10-16T18:43:18.105Z,26.30
2023-10-16T18:45:41.362Z,8.60
2023-10-16T18:48:05.174Z,6.43
2023-10-16T18:50:27.598Z,10.50
2023-10-16T18:52:50.308Z,7.30
2023-10-16T18:55:15.070Z,13.47
2023-10-16T18:57:37.397Z,5.57
2023-10-16T19:00:00.693Z,5.07
2023-10-16T19:02:23.052Z,4.23
2023-10-16T19:04:45.354Z,4.33
2023-10-16T19:07:07.968Z,6.13
2023-10-16T19:09:31.430Z,3.97
2023-10-16T19:11:53.748Z,3.80
2023-10-16T19:14:17.309Z,3.50
2023-10-16T19:16:39.912Z,4.40
2023-10-16T19:19:02.344Z,3.40
2023-10-16T19:21:24.702Z,7.63
2023-10-16T19:23:47.167Z,5.17
2023-10-16T19:26:14.313Z,6.13
2023-10-16T19:28:36.869Z,4.80
2023-10-16T19:30:59.264Z,5.90
2023-10-16T19:33:24.994Z,4.20
2023-10-16T19:35:47.432Z,5.00
2023-10-16T19:38:09.756Z,4.93
2023-10-16T19:40:32.343Z,6.07
2023-10-16T19:42:55.295Z,4.20
2023-10-16T19:45:18.725Z,4.00
2023-10-16T19:47:42.855Z,4.87
2023-10-16T19:50:10.183Z,5.17
2023-10-16T19:52:32.446Z,3.80
2023-10-16T19:54:54.956Z,6.57
2023-10-16T19:57:18.974Z,3.70
2023-10-16T19:59:41.375Z,5.27
2023-10-16T20:02:06.938Z,4.10
2023-10-16T20:04:29.395Z,3.60
2023-10-16T20:06:56.184Z,3.47
2023-10-16T20:09:31.045Z,10.13
2023-10-16T20:11:59.770Z,5.53
2023-10-16T20:14:24.901Z,6.83
2023-10-16T20:16:48.397Z,4.17
2023-10-16T20:19:13.004Z,7.30
2023-10-16T20:21:36.369Z,4.87
2023-10-16T20:24:04.845Z,4.60
2023-10-16T20:26:28.465Z,4.83
2023-10-16T20:28:51.206Z,3.50
2023-10-16T20:31:14.459Z,3.60
2023-10-16T20:33:38.640Z,5.03
2023-10-16T20:36:00.995Z,4.10
2023-10-16T20:38:23.348Z,7.57
2023-10-16T20:40:47.097Z,4.67
2023-10-16T20:43:09.453Z,3.60
2023-10-16T20:45:31.940Z,3.47
2023-10-16T20:47:57.462Z,3.47
2023-10-16T20:50:28.327Z,5.07
2023-10-16T20:52:50.955Z,3.63
2023-10-16T20:55:14.510Z,3.20
2023-10-16T20:57:37.928Z,4.27
2023-10-16T21:00:00.297Z,3.60
2023-10-16T21:02:22.718Z,3.20
2023-10-16T21:04:45.043Z,3.60
2023-10-16T21:07:07.302Z,3.93
2023-10-16T21:09:30.247Z,4.10
2023-10-16T21:11:52.536Z,3.30
2023-10-16T21:14:14.808Z,3.50
2023-10-16T21:16:37.027Z,3.30
2023-10-16T21:18:59.280Z,3.23
2023-10-16T21:21:21.557Z,3.77
2023-10-16T21:23:44.333Z,7.03
2023-10-16T21:26:13.560Z,3.40
2023-10-16T21:28:35.785Z,3.90
2023-10-16T21:30:58.592Z,3.53
2023-10-16T21:33:21.116Z,7.27
2023-10-16T21:35:43.388Z,4.07
2023-10-16T21:38:05.660Z,3.83
2023-10-16T21:40:28.351Z,4.03
2023-10-16T21:42:50.924Z,3.20
2023-10-16T21:45:13.813Z,6.07
2023-10-16T21:47:39.185Z,3.53
2023-10-16T21:50:02.316Z,3.30
2023-10-16T21:52:24.539Z,3.93
2023-10-16T21:54:47.445Z,4.80
2023-10-16T21:57:16.530Z,3.67
2023-10-16T21:59:39.157Z,3.23
2023-10-16T22:02:04.590Z,3.07
2023-10-16T22:04:28.580Z,4.93
2023-10-16T22:06:51.541Z,4.30
2023-10-16T22:09:16.270Z,4.00
2023-10-16T22:11:43.438Z,5.80
2023-10-16T22:14:05.746Z,3.37
2023-10-16T22:16:28.040Z,3.20
2023-10-16T22:18:52.198Z,3.77
2023-10-16T22:21:17.090Z,3.37
2023-10-16T22:23:40.417Z,3.70
2023-10-16T22:26:02.683Z,5.60
2023-10-16T22:28:24.923Z,3.43
2023-10-16T22:30:47.146Z,6.90
2023-10-16T22:33:09.522Z,3.53
2023-10-16T22:35:32.333Z,3.50
2023-10-16T22:37:56.814Z,5.13
2023-10-16T22:40:20.935Z,5.63
2023-10-16T22:42:44.771Z,4.43
2023-10-16T22:45:07.703Z,5.30
2023-10-16T22:47:30.017Z,5.17
2023-10-16T22:49:52.271Z,5.23
2023-10-16T22:52:17.478Z,4.33
2023-10-16T22:54:39.806Z,5.93
2023-10-16T22:57:02.204Z,4.03
2023-10-16T22:59:24.426Z,4.03
2023-10-16T23:01:46.674Z,3.97
2023-10-16T23:04:09.226Z,7.30
2023-10-16T23:06:32.149Z,6.47
2023-10-16T23:08:57.868Z,4.20
2023-10-16T23:11:25.523Z,4.27
2023-10-16T23:13:47.879Z,5.03
2023-10-16T23:16:10.210Z,3.90
2023-10-16T23:18:32.470Z,5.23
2023-10-16T23:20:54.867Z,3.93
2023-10-16T23:23:36.739Z,4.77
2023-10-16T23:26:02.058Z,6.20
2023-10-16T23:28:24.523Z,3.63
2023-10-16T23:30:47.301Z,4.30
2023-10-16T23:33:11.929Z,6.40
2023-10-16T23:35:34.191Z,5.73
2023-10-16T23:37:56.438Z,5.70
2023-10-16T23:40:34.408Z,5.00
2023-10-16T23:42:56.787Z,4.07
2023-10-16T23:45:22.133Z,4.80
2023-10-16T23:47:45.851Z,4.20
2023-10-16T23:50:08.517Z,4.17
2023-10-16T23:52:38.382Z,6.20
2023-10-16T23:55:10.965Z,4.33
2023-10-16T23:57:49.524Z,4.07
